全部
Adels Grove Airport (Adels Grove, Queensland) YALG 天气
There is no TAF data available at YALG or any nearby airports.
There is no METAR data available at YALG. Showing METAR data for YCNY (12 mi E).
YCNY近期METAR历史数据(YALG无数据)
| Date | Time (AEST) | Flight Rules | Wind Dir. | Speed | Type | Height AGL (ft) | Visibility | Temp (°C) | Temp (°F) | Dew Point (°C) | Dew Point (°F) | Rel. Humid. | Pressure | Density Altitude | Remarks |
|---|---|---|---|---|---|---|---|---|---|---|---|---|---|---|---|
| 06-五月 | 06:00 | n/a | 180° | 6 kt | Missing | 19° | 66° | 8° | 46° | 49% | 1015 mb | 843 ft | |||
| 06-五月 | 05:00 | n/a | 180° | 7 kt | Missing | 19° | 66° | 8° | 46° | 49% | 1015 mb | 843 ft | |||
| 06-五月 | 04:00 | n/a | 180° | 5 kt | Missing | 20° | 68° | 9° | 48° | 49% | 1015 mb | 963 ft | |||
| 06-五月 | 03:00 | n/a | 180° | 8 kt | Missing | 20° | 68° | 9° | 48° | 49% | 1015 mb | 963 ft | |||
| 06-五月 | 02:00 | n/a | 190° | 9 kt | Missing | 21° | 69° | 10° | 50° | 49% | 1015 mb | 1,083 ft | |||
| 06-五月 | 01:00 | n/a | 190° | 8 kt | Missing | 21° | 69° | 11° | 51° | 53% | 1015 mb | 1,083 ft | |||
| 06-五月 | 00:00 | n/a | 190° | 8 kt | Missing | 22° | 71° | 12° | 53° | 53% | 1016 mb | 1,174 ft | |||
| 05-五月 | 23:00 | n/a | 190° | 7 kt | Missing | 23° | 73° | 13° | 55° | 53% | 1016 mb | 1,294 ft | |||
| 05-五月 | 22:00 | n/a | 190° | 4 kt | Missing | 22° | 71° | 13° | 55° | 57% | 1016 mb | 1,174 ft | |||
| 05-五月 | 21:00 | n/a | 160° | 5 kt | Missing | 24° | 75° | 13° | 55° | 50% | 1016 mb | 1,414 ft | |||
| 05-五月 | 20:00 | n/a | 170° | 5 kt | Missing | 24° | 75° | 14° | 57° | 54% | 1015 mb | 1,443 ft | |||
| 05-五月 | 19:00 | n/a | 190° | 6 kt | Missing | 25° | 77° | 14° | 57° | 50% | 1015 mb | 1,563 ft | |||
| 05-五月 | 18:00 | n/a | 170° | 5 kt | Missing | 27° | 80° | 14° | 57° | 45% | 1014 mb | 1,833 ft | |||
| 05-五月 | 17:00 | n/a | 170° | 7 kt | Missing | 29° | 84° | 14° | 57° | 40% | 1014 mb | 2,073 ft | |||
| 05-五月 | 16:00 | n/a | 180° | 7 kt | Missing | 29° | 84° | 14° | 57° | 40% | 1013 mb | 2,102 ft | |||
| 05-五月 | 15:00 | n/a | 150° | 9 kt | Missing | 29° | 84° | 14° | 57° | 40% | 1014 mb | 2,073 ft | |||
| 05-五月 | 14:00 | n/a | 160° | 9 kt | Missing | 29° | 84° | 14° | 57° | 40% | 1014 mb | 2,073 ft | |||
| 05-五月 | 13:00 | n/a | 150° | 10 kt | Missing | 28° | 82° | 16° | 60° | 48% | 1015 mb | 1,923 ft | |||
| 05-五月 | 12:00 | n/a | 190° | 9 kt | Missing | 27° | 80° | 17° | 62° | 54% | 1016 mb | 1,774 ft | |||
| 05-五月 | 11:00 | n/a | 130° | 10 kt | Missing | 26° | 78° | 18° | 64° | 61% | 1017 mb | 1,624 ft | |||
| 05-五月 | 10:00 | n/a | 150° | 7 kt | Missing | 24° | 75° | 17° | 62° | 65% | 1017 mb | 1,384 ft | |||
| 05-五月 | 09:00 | n/a | 190° | 9 kt | Missing | 21° | 69° | 16° | 60° | 73% | 1017 mb | 1,024 ft | |||
| 05-五月 | 08:00 | n/a | 200° | 6 kt | Missing | 19° | 66° | 16° | 60° | 83% | 1016 mb | 814 ft | |||
| 05-五月 | 07:00 | n/a | 200° | 6 kt | Missing | 19° | 66° | 16° | 60° | 83% | 1016 mb | 814 ft |
登录
| 您的浏览器不支持. 升级您的浏览器 |
